createdAt,value
2023-03-12T00:03:40.531Z,99694.56
2023-03-12T00:08:48.144Z,99691.67
2023-03-12T00:13:56.795Z,99686.15
2023-03-12T00:19:03.922Z,99684.81
2023-03-12T00:24:11.376Z,99686.38
2023-03-12T00:29:18.326Z,99681.82
2023-03-12T00:34:25.257Z,99680.45
2023-03-12T00:39:33.141Z,99684.63
2023-03-12T00:44:40.193Z,99679.57
2023-03-12T00:49:47.211Z,99673.67
2023-03-12T00:54:58.377Z,99674.36
2023-03-12T01:00:10.257Z,99672.67
2023-03-12T01:05:17.712Z,99677.19
2023-03-12T01:10:25.072Z,99682.55
2023-03-12T01:15:32.469Z,99681.02
2023-03-12T01:20:42.363Z,99686.49
2023-03-12T01:25:51.522Z,99687.83
2023-03-12T01:30:58.520Z,99681.41
2023-03-12T01:36:05.900Z,99681.90
2023-03-12T01:41:13.171Z,99679.17
2023-03-12T01:46:30.122Z,99679.19
2023-03-12T01:51:41.364Z,99680.08
2023-03-12T01:56:50.945Z,99684.81
2023-03-12T02:01:58.144Z,99681.81
2023-03-12T02:07:08.652Z,99682.41
2023-03-12T02:12:16.137Z,99684.84
2023-03-12T02:17:23.626Z,99691.09
2023-03-12T02:22:32.096Z,99692.14
2023-03-12T02:27:40.829Z,99692.73
2023-03-12T02:32:50.198Z,99701.92
2023-03-12T02:37:58.958Z,99707.36
2023-03-12T02:43:08.917Z,99711.63
2023-03-12T02:48:16.738Z,99714.42
2023-03-12T02:53:24.276Z,99711.84
2023-03-12T02:58:31.738Z,99714.40
2023-03-12T03:03:39.062Z,99713.77
2023-03-12T03:08:46.273Z,99716.34
2023-03-12T03:13:53.276Z,99719.57
2023-03-12T03:19:01.838Z,99720.09
2023-03-12T03:24:09.659Z,99725.94
2023-03-12T03:29:17.331Z,99736.91
2023-03-12T03:34:24.545Z,99737.27
2023-03-12T03:39:32.962Z,99746.14
2023-03-12T03:44:40.123Z,99753.20
2023-03-12T03:49:47.478Z,99750.64
2023-03-12T03:54:54.975Z,99756.19
2023-03-12T04:00:03.774Z,99759.54
2023-03-12T04:05:20.921Z,99765.95
2023-03-12T04:10:28.496Z,99768.67
2023-03-12T04:15:35.616Z,99768.50
2023-03-12T04:20:43.955Z,99772.28
2023-03-12T04:25:50.934Z,99776.23
2023-03-12T04:31:00.470Z,99786.77
2023-03-12T04:36:10.831Z,99786.81
2023-03-12T04:41:19.983Z,99792.80
2023-03-12T04:46:33.886Z,99799.95
2023-03-12T04:51:41.324Z,99802.68
2023-03-12T04:56:48.546Z,99802.61
2023-03-12T05:01:56.007Z,99809.27
2023-03-12T05:07:06.167Z,99818.40
2023-03-12T05:12:15.959Z,99820.77
2023-03-12T05:17:22.935Z,99821.64
2023-03-12T05:22:30.345Z,99822.08
2023-03-12T05:27:37.394Z,99824.67
2023-03-12T05:32:44.722Z,99831.52
2023-03-12T05:37:52.022Z,99839.45
2023-03-12T05:42:59.367Z,99837.23
2023-03-12T05:48:07.155Z,99842.16
2023-03-12T05:53:14.581Z,99842.93
2023-03-12T05:58:22.699Z,99849.73
2023-03-12T06:03:30.296Z,99856.69
2023-03-12T06:08:37.560Z,99869.64
2023-03-12T06:13:44.930Z,99871.08
2023-03-12T06:18:56.423Z,99877.87
2023-03-12T06:24:03.599Z,99886.75
2023-03-12T06:29:17.864Z,99889.20
2023-03-12T06:34:24.808Z,99893.70
2023-03-12T06:39:31.941Z,99891.41
2023-03-12T06:44:38.837Z,99900.96
2023-03-12T06:49:45.802Z,99905.98
2023-03-12T06:54:52.688Z,99909.27
2023-03-12T06:59:59.637Z,99917.95
2023-03-12T07:05:07.278Z,99923.08
2023-03-12T07:10:14.922Z,99932.45
2023-03-12T07:15:21.933Z,99931.83
2023-03-12T07:20:28.893Z,99938.31
2023-03-12T07:25:38.357Z,99946.35
2023-03-12T07:30:50.554Z,99946.03
2023-03-12T07:35:58.109Z,99954.36
2023-03-12T07:41:05.227Z,99959.29
2023-03-12T07:46:12.270Z,99967.64
2023-03-12T07:51:19.282Z,99969.17
2023-03-12T07:56:26.368Z,99970.21
2023-03-12T08:01:34.143Z,99968.71
2023-03-12T08:06:42.958Z,99969.90
2023-03-12T08:11:50.336Z,99970.06
2023-03-12T08:16:57.525Z,99971.27
2023-03-12T08:22:04.491Z,99973.15
2023-03-12T08:27:12.385Z,99973.49
2023-03-12T08:32:19.438Z,99975.20
2023-03-12T08:37:26.351Z,99977.09
2023-03-12T08:42:33.499Z,99980.99
2023-03-12T08:47:41.877Z,99988.98
2023-03-12T08:52:49.034Z,99992.03
2023-03-12T08:57:55.929Z,99993.55
2023-03-12T09:03:03.015Z,99992.36
2023-03-12T09:08:10.518Z,99988.30
2023-03-12T09:13:17.815Z,99990.51
2023-03-12T09:18:25.056Z,99990.86
2023-03-12T09:23:32.684Z,99987.77
2023-03-12T09:28:39.857Z,99991.48
2023-03-12T09:33:46.950Z,99989.41
2023-03-12T09:38:53.926Z,99988.20
2023-03-12T09:44:05.926Z,99985.30
2023-03-12T09:49:20.693Z,99985.24
2023-03-12T09:54:34.655Z,99985.50
2023-03-12T09:59:41.816Z,99985.55
2023-03-12T10:04:59.360Z,99979.80
2023-03-12T10:10:50.855Z,99978.92
2023-03-12T10:16:09.780Z,99979.38
2023-03-12T10:21:26.609Z,99978.82
2023-03-12T10:26:40.230Z,99980.05
2023-03-12T10:31:53.184Z,99973.18
2023-03-12T10:37:06.635Z,99975.02
2023-03-12T10:42:19.031Z,99974.63
2023-03-12T10:47:34.993Z,99978.98
2023-03-12T10:52:42.409Z,99986.05
2023-03-12T10:57:50.137Z,99977.89
2023-03-12T11:03:03.811Z,99974.28
2023-03-12T11:08:23.549Z,99973.54
2023-03-12T11:13:34.394Z,99966.73
2023-03-12T11:18:41.714Z,99969.67
2023-03-12T11:29:40.396Z,99959.45
2023-03-12T11:34:49.767Z,99952.37
2023-03-12T11:40:11.823Z,99947.94
2023-03-12T11:45:21.986Z,99940.87
2023-03-12T11:50:39.082Z,99939.56
2023-03-12T11:55:57.234Z,99938.02
2023-03-12T12:01:11.061Z,99931.88
2023-03-12T12:06:28.898Z,99935.02
2023-03-12T12:11:47.684Z,99931.85
2023-03-12T12:17:05.476Z,99933.74
2023-03-12T12:22:41.821Z,99924.81
2023-03-12T12:27:57.919Z,99921.65
2023-03-12T12:33:18.523Z,99921.02
2023-03-12T12:38:30.641Z,99918.08
2023-03-12T12:43:40.495Z,99918.13
2023-03-12T12:48:51.202Z,99916.13
2023-03-12T12:54:08.092Z,99908.73
2023-03-12T12:59:30.602Z,99911.48
2023-03-12T13:04:40.324Z,99911.91
2023-03-12T13:09:50.532Z,99906.08
2023-03-12T13:14:58.973Z,99899.44
2023-03-12T13:20:20.983Z,99893.53
2023-03-12T13:25:55.258Z,99886.10
2023-03-12T13:31:02.695Z,99881.73
2023-03-12T13:36:23.845Z,99882.57
2023-03-12T13:41:37.046Z,99890.08
2023-03-12T13:46:47.150Z,99888.66
2023-03-12T13:52:09.678Z,99898.65
2023-03-12T13:57:31.548Z,99890.75
2023-03-12T14:02:45.178Z,99881.77
2023-03-12T14:08:11.895Z,99881.45
2023-03-12T14:13:36.932Z,99883.52
2023-03-12T14:18:47.345Z,99877.88
2023-03-12T14:23:57.393Z,99869.45
2023-03-12T14:29:09.294Z,99873.98
2023-03-12T14:34:21.135Z,99872.89
2023-03-12T14:39:28.751Z,99866.02
2023-03-12T14:44:37.666Z,99873.52
2023-03-12T14:49:47.551Z,99869.80
2023-03-12T14:55:03.453Z,99867.63
2023-03-12T15:00:26.983Z,99862.92
2023-03-12T15:05:35.111Z,99848.41
2023-03-12T15:10:48.502Z,99841.83
2023-03-12T15:15:57.084Z,99842.77
2023-03-12T15:21:05.816Z,99842.95
2023-03-12T15:26:15.372Z,99846.23
2023-03-12T15:31:22.608Z,99837.54
2023-03-12T15:36:31.853Z,99824.27
2023-03-12T15:41:45.700Z,99826.03
2023-03-12T15:46:55.729Z,99826.47
2023-03-12T15:52:06.635Z,99829.34
2023-03-12T15:57:26.022Z,99826.86
2023-03-12T16:02:41.609Z,99802.55
2023-03-12T16:07:48.637Z,99782.42
2023-03-12T16:13:02.717Z,99780.38
2023-03-12T16:18:14.978Z,99782.98
2023-03-12T16:23:22.873Z,99801.95
2023-03-12T16:28:30.056Z,99805.87
2023-03-12T16:33:36.976Z,99788.12
2023-03-12T16:38:44.192Z,99785.55
2023-03-12T16:43:54.904Z,99785.88
2023-03-12T16:49:04.177Z,99778.02
2023-03-12T16:54:12.200Z,99784.73
2023-03-12T16:59:27.902Z,99797.56
2023-03-12T17:04:34.844Z,99785.20
2023-03-12T17:09:42.539Z,99790.39
2023-03-12T17:14:49.858Z,99804.05
2023-03-12T17:20:00.386Z,99807.14
2023-03-12T17:25:09.902Z,99804.45
2023-03-12T17:30:17.369Z,99795.98
2023-03-12T17:35:24.322Z,99794.67
2023-03-12T17:40:31.609Z,99787.08
2023-03-12T17:45:38.620Z,99797.48
2023-03-12T17:50:46.275Z,99809.25
2023-03-12T17:55:53.366Z,99815.39
2023-03-12T18:01:02.706Z,99806.73
2023-03-12T18:06:09.878Z,99794.86
2023-03-12T18:11:16.821Z,99778.90
2023-03-12T18:16:23.801Z,99770.61
2023-03-12T18:21:33.602Z,99763.33
2023-03-12T18:26:41.314Z,99769.27
2023-03-12T18:31:48.316Z,99781.83
2023-03-12T18:36:55.422Z,99787.77
2023-03-12T18:42:02.434Z,99782.12
2023-03-12T18:47:09.435Z,99775.13
2023-03-12T18:52:16.518Z,99768.63
2023-03-12T18:57:23.557Z,99756.55
2023-03-12T19:02:30.543Z,99743.77
2023-03-12T19:07:38.997Z,99732.75
2023-03-12T19:12:52.903Z,99733.75
2023-03-12T19:18:00.492Z,99729.35
2023-03-12T19:23:07.351Z,99727.48
2023-03-12T19:28:14.602Z,99718.14
2023-03-12T19:33:21.655Z,99706.60
2023-03-12T19:38:29.914Z,99708.15
2023-03-12T19:43:36.990Z,99705.78
2023-03-12T19:48:43.971Z,99695.95
2023-03-12T19:53:50.850Z,99693.77
2023-03-12T19:58:57.918Z,99700.27
2023-03-12T20:04:08.085Z,99704.00
2023-03-12T20:09:14.949Z,99705.36
2023-03-12T20:14:21.920Z,99705.02
2023-03-12T20:19:29.094Z,99704.33
2023-03-12T20:24:36.257Z,99701.28
2023-03-12T20:29:46.109Z,99709.45
2023-03-12T20:34:56.098Z,99713.89
2023-03-12T20:40:03.144Z,99707.63
2023-03-12T20:45:11.498Z,99703.08
2023-03-12T20:50:18.666Z,99701.08
2023-03-12T20:55:25.709Z,99704.18
2023-03-12T21:00:33.216Z,99706.06
2023-03-12T21:05:40.195Z,99709.70
2023-03-12T21:10:48.627Z,99703.40
2023-03-12T21:15:55.675Z,99696.70
2023-03-12T21:21:05.623Z,99691.35
2023-03-12T21:26:13.795Z,99691.58
2023-03-12T21:31:20.832Z,99690.55
2023-03-12T21:36:28.399Z,99690.38
2023-03-12T21:41:35.263Z,99682.21
2023-03-12T21:46:42.339Z,99673.37
2023-03-12T21:51:49.249Z,99674.35
2023-03-12T21:56:56.201Z,99670.77
2023-03-12T22:02:03.098Z,99668.89
2023-03-12T22:07:10.109Z,99668.36
2023-03-12T22:12:17.052Z,99669.03
2023-03-12T22:17:24.001Z,99658.19
2023-03-12T22:22:31.126Z,99646.64
2023-03-12T22:27:38.055Z,99644.09
2023-03-12T22:32:45.456Z,99638.65
2023-03-12T22:37:52.489Z,99636.94
2023-03-12T22:42:59.394Z,99630.27
2023-03-12T22:48:07.774Z,99622.77
2023-03-12T22:53:14.753Z,99614.38
2023-03-12T22:58:21.560Z,99616.52
2023-03-12T23:03:28.390Z,99620.55
2023-03-12T23:08:35.438Z,99616.95
2023-03-12T23:13:44.603Z,99612.67
2023-03-12T23:18:52.213Z,99602.27
2023-03-12T23:23:59.911Z,99592.91
2023-03-12T23:29:06.852Z,99591.70
2023-03-12T23:34:14.049Z,99576.39
2023-03-12T23:39:22.486Z,99565.17
2023-03-12T23:44:29.999Z,99563.48
2023-03-12T23:49:37.024Z,99570.05
2023-03-12T23:54:44.056Z,99579.85
2023-03-12T23:59:50.997Z,99578.29
